Aérodrome :
LOGIN :

S'inscrire | Disclaimer

   EN    FR    IT 

 










Légende :    VFR   VFR Marginal   IFR   IFR Intensif   IFR Très Intensif
Visi : 
Plafond : 
>= 8 km
>= 3000ft
5 à 8 km
1000 à 3000 ft
1500m à 5 km
500 à 1000 ft
800 à 1500m
200 à 500 ft
< 800m
< 200 ft
Symboles :   Orages  Brouillard  Fortes neiges  Fortes précipitations  Vent > 20 kt
SIGMETs :   Divers  Orages  Givrage  Turbulence  Onde Orograph.  Cendres Volcan.







- Altitude de l'aérodrome : 17 ft
- Code IATA : GRQ


EHGG - Groningen Eelde

DERNIER METAR :
  • 181525Z AUTO 23010KT 210V270 9999 FEW011 SCT014 BKN017 18/16 Q1018 TEMPO 4000 -DZ BKN008

METARs EXPIRÉS :
  • 181455Z AUTO 27010KT 210V320 9999 -RA FEW007 SCT011 BKN017 17/16 Q1018 TEMPO 4000 -DZ BKN008
  • 181425Z AUTO 26011KT 230V300 9999 FEW014 SCT017 BKN020 18/16 Q1018 TEMPO 4000 -DZ BKN008
  • 181355Z AUTO 25010KT 220V280 6000 BKN016 OVC020 17/16 Q1018 RERA REDZ TEMPO 4000 -DZ BKN008
  • 181325Z AUTO 23012KT 200V260 9999 FEW013 BKN016 BKN021 18/16 Q1017 TEMPO 4000 -DZ BKN008
  • 181255Z AUTO 24012KT 210V270 9999 FEW010 BKN012 BKN025 19/17 Q1017 TEMPO 4000 -DZ BKN008

TAF TAF EHGG
Valide du 18 à 12h jusqu'au 19 à 18h UTC


181113Z 1812/1918 23012KT 9999 BKN015
PROB40
TEMPO 1812/1814 4000 -RADZ BKN008
BECMG 1818/1821 20008KT
PROB30 1904/1907 5000 BR BKN012
BECMG 1906/1909 27010KT
BECMG 1915/1918 20004KT
Pas de NOTAMs connus pour ce terrain.



MET'MAP, la Météo Aéronautique d'un coup d'oeil ! - Copyright ORBIFLY Décembre 2007 - Disclaimer

ORBIFLY MET'MAP TEAM :

Programmation & Développement : Alexandra Zaïnal
Conception & Développement : Baudouin d'Aumeries
Co-Programmation & Développement : Marc-Olivier Méhu
Soutien technique & logistique : Manuel Goepfert

Contact : metmap@orbifly.com




SOURCES & CREDITS :

   NOAA